LTAN

Details ICAO LTAN (KYA)
Name KONYA
Region Turkey
Timezone Europe/Istanbul (UTC+3.0)
Plans Departing 64
Arriving 53
Stats Elevation 3,381 ft / 1,031 m (AMSL)
Location 37.979000° 32.561847°
Runways 1
Magnetic Variation 5.344° E
Sunrise 2017-12-13 04:58:29 UTC / 2017-12-13 07:58:29 Local
Sunset 2017-12-13 14:32:11 UTC / 2017-12-13 17:32:11 Local
Advertisement - Login to hide

Runways

ID Width Length Bearing (true) Bearing (mag) Surface Threshold Offset Overrun Length
01 148 ft / 45 m 11,008 ft / 3,355 m 16.74° 11.40° Asphalt 0 ft / 0 m 328 ft / 100 m
19 148 ft / 45 m 11,008 ft / 3,355 m 196.75° 191.41° Asphalt 0 ft / 0 m 328 ft / 100 m

Map

Weather


0- 5 10 15 20 25 30 35+ Temperature / ° C

Clouds and Precipitation
Forecast for 2017-12-13 12:00 UTC. Updated 11 minutes ago

Ground ~20,000 ft ~40,000 ft Winds

METAR

LTAN 130850Z 16005KT 3400 BR NSC 07/02 Q1022 BECMG TL0950 9999 NSW

TAF

Not found

Frequencies

Recorded 128.35 MHz ATIS
Tower 122.10 MHz TWR
Ground 121.95 MHz GND
Approach 122.10 MHz APP
Warning: Do not use this data for real-world aviation or navigation. No guarantee of current accuracy is given.